createdAt,value
2023-04-06T00:02:16.090Z,41.33
2023-04-06T00:04:43.943Z,41.00
2023-04-06T00:07:13.240Z,41.23
2023-04-06T00:09:41.770Z,41.12
2023-04-06T00:12:09.575Z,41.12
2023-04-06T00:14:37.372Z,41.39
2023-04-06T00:17:05.720Z,41.20
2023-04-06T00:19:33.638Z,40.98
2023-04-06T00:22:03.211Z,41.31
2023-04-06T00:24:32.842Z,40.62
2023-04-06T00:27:00.872Z,40.67
2023-04-06T00:29:28.673Z,40.82
2023-04-06T00:31:56.911Z,40.80
2023-04-06T00:34:24.721Z,40.76
2023-04-06T00:36:52.515Z,40.64
2023-04-06T00:39:21.160Z,40.05
2023-04-06T00:41:53.800Z,40.41
2023-04-06T00:44:22.623Z,40.80
2023-04-06T00:46:50.872Z,40.49
2023-04-06T00:49:19.099Z,40.78
2023-04-06T00:51:47.375Z,40.60
2023-04-06T00:54:15.564Z,40.46
2023-04-06T00:56:44.760Z,40.35
2023-04-06T00:59:15.304Z,39.92
2023-04-06T01:01:43.412Z,39.90
2023-04-06T01:04:11.241Z,40.38
2023-04-06T01:06:39.643Z,40.23
2023-04-06T01:09:07.769Z,40.29
2023-04-06T01:11:35.843Z,40.20
2023-04-06T01:14:04.271Z,39.94
2023-04-06T01:16:33.483Z,39.69
2023-04-06T01:19:01.579Z,39.70
2023-04-06T01:21:29.961Z,39.85
2023-04-06T01:23:59.197Z,39.95
2023-04-06T01:26:27.980Z,39.63
2023-04-06T01:28:56.495Z,39.69
2023-04-06T01:31:25.033Z,40.08
2023-04-06T01:33:53.176Z,39.68
2023-04-06T01:36:22.123Z,39.91
2023-04-06T01:38:49.932Z,40.16
2023-04-06T01:41:19.132Z,39.92
2023-04-06T01:43:48.551Z,40.04
2023-04-06T01:46:16.423Z,39.91
2023-04-06T01:48:44.246Z,39.74
2023-04-06T01:51:12.802Z,39.98
2023-04-06T01:53:40.758Z,39.70
2023-04-06T01:56:08.818Z,39.99
2023-04-06T01:58:38.681Z,40.09
2023-04-06T02:01:06.515Z,40.02
2023-04-06T02:03:34.381Z,40.01
2023-04-06T02:06:02.698Z,40.45
2023-04-06T02:08:30.506Z,40.36
2023-04-06T02:10:58.312Z,40.23
2023-04-06T02:13:26.666Z,40.01
2023-04-06T02:15:55.968Z,40.69
2023-04-06T02:18:23.858Z,41.29
2023-04-06T02:20:52.504Z,40.61
2023-04-06T02:23:20.420Z,40.98
2023-04-06T02:25:48.213Z,40.88
2023-04-06T02:28:16.695Z,41.06
2023-04-06T02:30:44.486Z,41.19
2023-04-06T02:33:13.684Z,41.61
2023-04-06T02:35:42.153Z,41.42
2023-04-06T02:38:09.953Z,41.97
2023-04-06T02:40:37.727Z,41.86
2023-04-06T02:43:06.116Z,42.14
2023-04-06T02:45:33.912Z,41.92
2023-04-06T02:48:01.802Z,41.77
2023-04-06T02:50:31.578Z,41.74
2023-04-06T02:52:59.166Z,41.13
2023-04-06T02:55:26.951Z,41.87
2023-04-06T02:57:55.284Z,42.23
2023-04-06T03:00:23.273Z,42.24
2023-04-06T03:02:51.198Z,42.45
2023-04-06T03:05:19.657Z,42.78
2023-04-06T03:07:48.826Z,42.93
2023-04-06T03:10:16.710Z,43.04
2023-04-06T03:12:45.052Z,42.97
2023-04-06T03:15:12.967Z,43.03
2023-04-06T03:17:41.149Z,43.17
2023-04-06T03:20:10.398Z,43.62
2023-04-06T03:22:38.264Z,43.30
2023-04-06T03:25:08.260Z,43.77
2023-04-06T03:27:36.430Z,43.94
2023-04-06T03:30:04.392Z,44.15
2023-04-06T03:32:32.194Z,44.56
2023-04-06T03:35:00.564Z,44.40
2023-04-06T03:37:28.340Z,44.63
2023-04-06T03:39:56.118Z,44.64
2023-04-06T03:42:25.932Z,44.80
2023-04-06T03:44:53.714Z,44.49
2023-04-06T03:47:21.748Z,44.53
2023-04-06T03:49:50.131Z,44.70
2023-04-06T03:52:17.939Z,44.75
2023-04-06T03:54:45.725Z,44.89
2023-04-06T03:57:14.119Z,45.29
2023-04-06T03:59:43.439Z,44.96
2023-04-06T04:02:11.365Z,45.16
2023-04-06T04:04:40.532Z,45.27
2023-04-06T04:07:08.390Z,45.76
2023-04-06T04:09:36.364Z,45.73
2023-04-06T04:12:05.118Z,45.42
2023-04-06T04:14:32.907Z,45.79
2023-04-06T04:17:02.059Z,45.31
2023-04-06T04:19:30.552Z,45.76
2023-04-06T04:21:58.388Z,46.14
2023-04-06T04:24:26.213Z,45.85
2023-04-06T04:26:54.421Z,45.81
2023-04-06T04:29:23.459Z,45.93
2023-04-06T04:31:51.546Z,46.37
2023-04-06T04:34:22.289Z,45.96
2023-04-06T04:36:50.104Z,45.87
2023-04-06T04:39:17.917Z,46.35
2023-04-06T04:41:46.146Z,46.48
2023-04-06T04:44:13.957Z,46.34
2023-04-06T04:46:42.470Z,46.47
2023-04-06T04:49:10.884Z,46.86
2023-04-06T04:51:40.207Z,47.30
2023-04-06T04:54:08.061Z,47.14
2023-04-06T04:56:36.319Z,46.81
2023-04-06T04:59:04.195Z,46.25
2023-04-06T05:01:38.007Z,46.58
2023-04-06T05:04:15.914Z,46.28
2023-04-06T05:06:45.225Z,46.90
2023-04-06T05:09:13.025Z,46.73
2023-04-06T05:11:41.306Z,46.85
2023-04-06T05:14:09.186Z,46.47
2023-04-06T05:16:37.251Z,47.15
2023-04-06T05:19:05.627Z,46.63
2023-04-06T05:21:33.427Z,47.02
2023-04-06T05:24:03.454Z,47.23
2023-04-06T05:26:31.921Z,47.38
2023-04-06T05:28:59.814Z,47.14
2023-04-06T05:31:27.718Z,46.98
2023-04-06T05:33:55.667Z,46.82
2023-04-06T05:36:23.459Z,46.96
2023-04-06T05:38:53.712Z,47.61
2023-04-06T05:41:23.501Z,47.32
2023-04-06T05:43:51.335Z,47.08
2023-04-06T05:46:19.229Z,46.96
2023-04-06T05:48:47.820Z,47.50
2023-04-06T05:51:15.623Z,47.17
2023-04-06T05:53:43.412Z,47.25
2023-04-06T05:56:11.754Z,47.17
2023-04-06T05:58:41.016Z,46.75
2023-04-06T06:01:10.001Z,47.05
2023-04-06T06:03:38.507Z,47.23
2023-04-06T06:06:07.013Z,47.08
2023-04-06T06:08:34.834Z,47.38
2023-04-06T06:11:04.585Z,47.72
2023-04-06T06:13:32.417Z,46.97
2023-04-06T06:16:01.661Z,46.95
2023-04-06T06:18:30.088Z,46.38
2023-04-06T06:20:57.891Z,46.08
2023-04-06T06:23:25.695Z,46.39
2023-04-06T06:25:54.135Z,46.78
2023-04-06T06:28:22.489Z,46.48
2023-04-06T06:30:50.314Z,46.88
2023-04-06T06:33:20.075Z,47.66
2023-04-06T06:35:48.496Z,47.93
2023-04-06T06:38:16.425Z,48.71
2023-04-06T06:40:44.639Z,48.91
2023-04-06T06:43:12.455Z,49.20
2023-04-06T06:45:40.270Z,49.57
2023-04-06T06:48:08.543Z,50.45
2023-04-06T06:50:37.770Z,50.45
2023-04-06T06:53:05.752Z,51.13
2023-04-06T06:55:34.210Z,51.03
2023-04-06T06:58:02.063Z,51.68
2023-04-06T07:00:29.875Z,52.12
2023-04-06T07:02:58.242Z,52.73
2023-04-06T07:05:28.682Z,52.66
2023-04-06T07:07:58.713Z,53.41
2023-04-06T07:10:26.939Z,51.31
2023-04-06T07:12:54.855Z,52.45
2023-04-06T07:15:23.071Z,53.43
2023-04-06T07:17:51.045Z,54.00
2023-04-06T07:20:19.052Z,54.04
2023-04-06T07:22:47.240Z,54.51
2023-04-06T07:25:16.628Z,54.80
2023-04-06T07:27:44.437Z,55.41
2023-04-06T07:30:13.237Z,54.87
2023-04-06T07:32:41.192Z,55.49
2023-04-06T07:35:09.512Z,55.89
2023-04-06T07:37:37.689Z,56.06
2023-04-06T07:40:06.298Z,55.56
2023-04-06T07:42:36.664Z,55.85
2023-04-06T07:45:05.034Z,56.26
2023-04-06T07:47:32.852Z,55.96
2023-04-06T07:50:00.970Z,56.70
2023-04-06T07:52:29.145Z,56.92
2023-04-06T07:54:56.942Z,56.76
2023-04-06T07:57:24.753Z,57.33
2023-04-06T07:59:54.390Z,57.62
2023-04-06T08:02:22.055Z,56.27
2023-04-06T08:04:50.003Z,57.19
2023-04-06T08:07:18.234Z,57.33
2023-04-06T08:09:46.104Z,58.25
2023-04-06T08:12:13.929Z,58.39
2023-04-06T08:14:42.097Z,58.22
2023-04-06T08:17:11.392Z,58.64
2023-04-06T08:19:39.512Z,58.72
2023-04-06T08:22:07.656Z,58.85
2023-04-06T08:24:35.509Z,58.83
2023-04-06T08:27:03.931Z,59.06
2023-04-06T08:29:32.126Z,58.99
2023-04-06T08:31:59.946Z,58.90
2023-04-06T08:34:29.180Z,58.92
2023-04-06T08:36:57.321Z,59.31
2023-04-06T08:39:26.644Z,58.91
2023-04-06T08:41:58.197Z,59.44
2023-04-06T08:44:26.425Z,58.90
2023-04-06T08:46:54.962Z,59.49
2023-04-06T08:49:24.296Z,59.50
2023-04-06T08:51:54.041Z,59.51
2023-04-06T08:54:21.600Z,57.36
2023-04-06T08:56:50.048Z,59.26
2023-04-06T08:59:18.018Z,59.82
2023-04-06T09:01:47.912Z,59.44
2023-04-06T09:04:18.110Z,60.12
2023-04-06T09:06:46.410Z,60.49
2023-04-06T09:09:16.251Z,60.39
2023-04-06T09:11:49.098Z,61.00
2023-04-06T09:14:17.914Z,60.90
2023-04-06T09:16:48.450Z,60.93
2023-04-06T09:19:16.586Z,60.61
2023-04-06T09:21:44.469Z,60.98
2023-04-06T09:24:12.423Z,61.24
2023-04-06T09:26:49.100Z,61.01
2023-04-06T09:29:35.828Z,59.67
2023-04-06T09:32:07.428Z,61.12
2023-04-06T09:34:36.468Z,61.13
2023-04-06T09:37:14.895Z,60.15
2023-04-06T09:39:42.780Z,60.18
2023-04-06T09:42:12.371Z,60.46
2023-04-06T09:44:40.285Z,59.62
2023-04-06T09:47:09.835Z,60.30
2023-04-06T09:49:37.842Z,60.37
2023-04-06T09:52:08.870Z,60.44
2023-04-06T09:54:37.529Z,60.21
2023-04-06T09:57:14.961Z,60.08
2023-04-06T09:59:49.768Z,60.59
2023-04-06T10:02:26.934Z,60.70
2023-04-06T10:05:00.836Z,61.06
2023-04-06T10:07:29.594Z,59.89
2023-04-06T10:09:58.073Z,60.98
2023-04-06T10:12:27.261Z,60.93
2023-04-06T10:14:56.707Z,60.30
2023-04-06T10:17:25.430Z,60.29
2023-04-06T10:19:57.446Z,60.69
2023-04-06T10:22:35.700Z,60.94
2023-04-06T10:25:03.890Z,60.79
2023-04-06T10:27:34.748Z,60.70
2023-04-06T10:30:07.891Z,60.79
2023-04-06T10:32:38.225Z,61.49
2023-04-06T10:35:10.597Z,61.57
2023-04-06T10:37:53.766Z,61.83
2023-04-06T10:40:24.777Z,61.63
2023-04-06T10:42:54.740Z,61.62
2023-04-06T10:45:24.581Z,61.40
2023-04-06T10:47:54.924Z,62.01
2023-04-06T10:50:23.515Z,62.46
2023-04-06T10:53:02.369Z,61.89
2023-04-06T10:55:31.616Z,61.94
2023-04-06T10:58:00.866Z,62.08
2023-04-06T11:00:36.267Z,61.74
2023-04-06T11:03:11.217Z,61.16
2023-04-06T11:05:39.290Z,60.87
2023-04-06T11:08:07.536Z,61.58
2023-04-06T11:10:35.365Z,61.47
2023-04-06T11:13:06.933Z,61.58
2023-04-06T11:15:38.194Z,62.15
2023-04-06T11:18:07.507Z,61.84
2023-04-06T11:20:35.648Z,61.83
2023-04-06T11:23:04.684Z,62.25
2023-04-06T11:25:33.647Z,62.15
2023-04-06T11:28:01.894Z,62.00
2023-04-06T11:30:31.370Z,62.28
2023-04-06T11:33:04.562Z,62.46
2023-04-06T11:35:34.794Z,62.21
2023-04-06T11:38:05.911Z,62.08
2023-04-06T11:40:34.202Z,62.03
2023-04-06T11:43:01.991Z,61.81
2023-04-06T11:45:42.213Z,63.02
2023-04-06T11:48:21.040Z,62.09
2023-04-06T11:50:49.982Z,62.80
2023-04-06T11:53:17.834Z,62.99
2023-04-06T11:55:47.732Z,62.61
2023-04-06T11:58:16.220Z,62.47
2023-04-06T12:00:47.508Z,63.60
2023-04-06T12:03:16.613Z,63.22
2023-04-06T12:05:45.826Z,63.19
2023-04-06T12:08:13.649Z,62.71
2023-04-06T12:10:41.674Z,63.11
2023-04-06T12:13:09.469Z,63.30
2023-04-06T12:15:37.254Z,63.27
2023-04-06T12:18:06.748Z,62.92
2023-04-06T12:20:34.789Z,63.68
2023-04-06T12:23:02.605Z,63.37
2023-04-06T12:25:31.236Z,63.51
2023-04-06T12:27:59.997Z,62.96
2023-04-06T12:30:27.796Z,63.59
2023-04-06T12:32:55.898Z,63.71
2023-04-06T12:35:25.187Z,63.58
2023-04-06T12:37:52.952Z,63.15
2023-04-06T12:40:21.471Z,63.34
2023-04-06T12:42:49.248Z,63.65
2023-04-06T12:45:17.233Z,63.61
2023-04-06T12:47:45.234Z,63.24
2023-04-06T12:50:13.013Z,63.36
2023-04-06T12:52:42.227Z,62.31
2023-04-06T12:55:11.203Z,63.51
2023-04-06T12:57:39.161Z,63.34
2023-04-06T13:00:09.349Z,63.75
2023-04-06T13:02:37.995Z,63.66
2023-04-06T13:05:06.472Z,62.78
2023-04-06T13:07:34.275Z,63.06
2023-04-06T13:10:03.690Z,63.05
2023-04-06T13:12:31.466Z,62.82
2023-04-06T13:14:59.261Z,63.48
2023-04-06T13:17:29.861Z,63.15
2023-04-06T13:19:57.905Z,63.44
2023-04-06T13:22:25.693Z,63.57
2023-04-06T13:24:53.825Z,63.58
2023-04-06T13:27:22.999Z,63.63
2023-04-06T13:29:50.789Z,63.58
2023-04-06T13:32:18.967Z,63.48
2023-04-06T13:34:48.977Z,64.01
2023-04-06T13:37:17.849Z,63.74
2023-04-06T13:39:45.917Z,63.60
2023-04-06T13:42:13.712Z,63.98
2023-04-06T13:44:42.888Z,63.61
2023-04-06T13:47:10.964Z,64.12
2023-04-06T13:49:38.890Z,64.06
2023-04-06T13:52:06.721Z,64.27
2023-04-06T13:54:34.676Z,64.57
2023-04-06T13:57:02.489Z,64.16
2023-04-06T13:59:34.578Z,63.81
2023-04-06T14:02:04.472Z,63.98
2023-04-06T14:04:32.354Z,64.35
2023-04-06T14:07:00.895Z,64.56
2023-04-06T14:09:28.643Z,64.07
2023-04-06T14:11:57.382Z,64.61
2023-04-06T14:14:25.813Z,65.29
2023-04-06T14:16:53.722Z,65.44
2023-04-06T14:19:22.903Z,65.03
2023-04-06T14:21:50.935Z,65.23
2023-04-06T14:24:20.042Z,65.59
2023-04-06T14:26:47.744Z,65.18
2023-04-06T14:29:17.090Z,64.75
2023-04-06T14:31:47.966Z,65.97
2023-04-06T14:34:16.181Z,65.10
2023-04-06T14:36:45.820Z,65.42
2023-04-06T14:39:13.545Z,65.31
2023-04-06T14:41:41.963Z,65.65
2023-04-06T14:44:13.490Z,65.38
2023-04-06T14:46:41.346Z,66.04
2023-04-06T14:49:09.830Z,66.19
2023-04-06T14:51:38.016Z,66.60
2023-04-06T14:54:07.307Z,66.35
2023-04-06T14:56:34.998Z,66.71
2023-04-06T14:59:03.083Z,66.80
2023-04-06T15:01:31.339Z,66.86
2023-04-06T15:04:00.372Z,67.15
2023-04-06T15:06:29.419Z,66.98
2023-04-06T15:08:57.192Z,67.06
2023-04-06T15:11:27.062Z,66.98
2023-04-06T15:13:55.353Z,66.42
2023-04-06T15:16:23.124Z,66.65
2023-04-06T15:18:51.042Z,66.72
2023-04-06T15:21:21.487Z,66.42
2023-04-06T15:23:49.487Z,66.60
2023-04-06T15:26:17.281Z,66.02
2023-04-06T15:28:46.933Z,66.54
2023-04-06T15:31:33.158Z,66.09
2023-04-06T15:34:05.459Z,66.27
2023-04-06T15:36:33.832Z,66.44
2023-04-06T15:39:02.199Z,66.40
2023-04-06T15:41:30.442Z,66.41
2023-04-06T15:43:59.861Z,66.22
2023-04-06T15:46:28.907Z,66.31
2023-04-06T15:48:57.585Z,65.96
2023-04-06T15:51:26.216Z,65.89
2023-04-06T15:53:53.911Z,65.62
2023-04-06T15:56:22.567Z,66.39
2023-04-06T15:58:50.366Z,66.31
2023-04-06T16:01:20.429Z,66.46
2023-04-06T16:03:49.201Z,66.60
2023-04-06T16:06:17.030Z,66.04
2023-04-06T16:08:45.154Z,66.21
2023-04-06T16:11:14.110Z,65.94
2023-04-06T16:13:45.034Z,65.85
2023-04-06T16:16:16.282Z,66.18
2023-04-06T16:18:45.724Z,66.33
2023-04-06T16:21:17.489Z,66.33
2023-04-06T16:23:46.453Z,66.04
2023-04-06T16:26:15.612Z,66.30
2023-04-06T16:28:43.658Z,66.39
2023-04-06T16:31:18.901Z,66.58
2023-04-06T16:33:48.761Z,66.35
2023-04-06T16:36:23.137Z,66.06
2023-04-06T16:38:52.010Z,66.20
2023-04-06T16:41:20.084Z,66.43
2023-04-06T16:43:48.113Z,66.18
2023-04-06T16:46:16.718Z,66.28
2023-04-06T16:48:44.572Z,66.16
2023-04-06T16:51:13.634Z,66.21
2023-04-06T16:53:41.951Z,66.18
2023-04-06T16:58:43.106Z,65.57
2023-04-06T17:01:19.252Z,65.90
2023-04-06T17:03:47.937Z,65.30
2023-04-06T17:06:17.252Z,65.12
2023-04-06T17:08:46.457Z,65.29
2023-04-06T17:11:18.656Z,65.60
2023-04-06T17:13:50.680Z,65.45
2023-04-06T17:16:19.538Z,64.96
2023-04-06T17:18:47.350Z,64.97
2023-04-06T17:21:16.914Z,64.90
2023-04-06T17:23:46.756Z,64.90
2023-04-06T17:26:14.647Z,65.06
2023-04-06T17:28:42.820Z,65.33
2023-04-06T17:31:12.844Z,65.25
2023-04-06T17:33:41.804Z,65.16
2023-04-06T17:36:12.706Z,64.70
2023-04-06T17:38:43.812Z,64.33
2023-04-06T17:41:14.480Z,64.46
2023-04-06T17:43:42.158Z,64.76
2023-04-06T17:46:09.955Z,64.64
2023-04-06T17:48:38.208Z,64.71
2023-04-06T17:51:06.684Z,64.77
2023-04-06T17:53:34.573Z,64.50
2023-04-06T17:56:04.381Z,65.42
2023-04-06T17:58:33.841Z,65.27
2023-04-06T18:01:07.552Z,65.48
2023-04-06T18:03:35.538Z,65.58
2023-04-06T18:06:11.444Z,65.58
2023-04-06T18:08:39.156Z,65.88
2023-04-06T18:11:06.860Z,65.97
2023-04-06T18:13:39.282Z,66.44
2023-04-06T18:16:08.148Z,66.68
2023-04-06T18:18:36.625Z,66.74
2023-04-06T18:21:05.405Z,66.61
2023-04-06T18:23:34.186Z,66.74
2023-04-06T18:26:02.453Z,67.09
2023-04-06T18:28:31.204Z,66.84
2023-04-06T18:31:02.591Z,66.64
2023-04-06T18:33:32.197Z,67.38
2023-04-06T18:35:59.966Z,67.72
2023-04-06T18:38:28.287Z,67.02
2023-04-06T18:40:55.998Z,67.71
2023-04-06T18:43:23.670Z,67.29
2023-04-06T18:45:51.948Z,67.25
2023-04-06T18:48:21.039Z,67.42
2023-04-06T18:50:55.943Z,67.35
2023-04-06T18:53:23.599Z,67.10
2023-04-06T18:55:51.642Z,66.77
2023-04-06T18:58:19.978Z,67.11
2023-04-06T19:00:47.697Z,67.51
2023-04-06T19:03:15.649Z,67.00
2023-04-06T19:05:45.497Z,67.56
2023-04-06T19:08:13.615Z,67.15
2023-04-06T19:10:41.553Z,67.44
2023-04-06T19:13:10.021Z,66.87
2023-04-06T19:15:37.785Z,66.49
2023-04-06T19:18:05.891Z,66.83
2023-04-06T19:20:35.472Z,66.26
2023-04-06T19:23:04.743Z,66.63
2023-04-06T19:25:32.572Z,66.63
2023-04-06T19:28:01.229Z,66.52
2023-04-06T19:30:28.993Z,66.25
2023-04-06T19:32:57.548Z,66.73
2023-04-06T19:35:25.776Z,66.52
2023-04-06T19:37:53.774Z,66.25
2023-04-06T19:40:22.850Z,66.47
2023-04-06T19:42:51.036Z,66.17
2023-04-06T19:45:18.757Z,65.90
2023-04-06T19:47:46.654Z,66.40
2023-04-06T19:50:15.888Z,66.13
2023-04-06T19:52:43.601Z,66.15
2023-04-06T19:55:11.625Z,65.92
2023-04-06T19:57:40.993Z,66.21
2023-04-06T20:00:10.145Z,66.03
2023-04-06T20:02:38.115Z,65.65
2023-04-06T20:05:07.203Z,65.88
2023-04-06T20:07:34.904Z,66.04
2023-04-06T20:10:03.817Z,65.81
2023-04-06T20:12:32.144Z,65.77
2023-04-06T20:15:01.378Z,66.41
2023-04-06T20:17:29.094Z,66.14
2023-04-06T20:19:57.596Z,65.85
2023-04-06T20:22:25.341Z,65.93
2023-04-06T20:24:53.001Z,65.65
2023-04-06T20:27:20.975Z,65.85
2023-04-06T20:29:48.983Z,65.18
2023-04-06T20:32:20.756Z,64.82
2023-04-06T20:34:48.804Z,64.75
2023-04-06T20:37:17.773Z,65.01
2023-04-06T20:39:45.562Z,65.39
2023-04-06T20:42:13.295Z,65.13
2023-04-06T20:44:41.145Z,65.17
2023-04-06T20:47:08.925Z,64.77
2023-04-06T20:49:37.969Z,65.15
2023-04-06T20:52:05.971Z,64.96
2023-04-06T20:54:33.639Z,64.55
2023-04-06T20:57:01.539Z,64.77
2023-04-06T20:59:29.496Z,64.92
2023-04-06T21:01:57.235Z,65.17
2023-04-06T21:04:25.102Z,64.61
2023-04-06T21:06:54.590Z,64.65
2023-04-06T21:09:22.254Z,65.28
2023-04-06T21:11:49.886Z,64.93
2023-04-06T21:14:20.574Z,65.06
2023-04-06T21:16:48.810Z,64.97
2023-04-06T21:19:16.444Z,65.13
2023-04-06T21:21:44.301Z,64.96
2023-04-06T21:24:13.346Z,64.49
2023-04-06T21:26:41.217Z,65.18
2023-04-06T21:29:09.756Z,65.04
2023-04-06T21:31:41.113Z,65.12
2023-04-06T21:34:13.141Z,65.04
2023-04-06T21:36:41.697Z,65.46
2023-04-06T21:39:09.792Z,65.51
2023-04-06T21:41:41.181Z,65.23
2023-04-06T21:44:08.834Z,65.26
2023-04-06T21:46:36.549Z,65.64
2023-04-06T21:49:04.883Z,65.47
2023-04-06T21:51:32.621Z,65.79
2023-04-06T21:54:00.383Z,65.67
2023-04-06T21:56:28.612Z,65.59
2023-04-06T21:58:57.750Z,65.36
2023-04-06T22:01:25.410Z,65.65
2023-04-06T22:03:56.444Z,65.18
2023-04-06T22:06:25.594Z,65.14
2023-04-06T22:08:53.290Z,65.08
2023-04-06T22:11:21.687Z,65.43
2023-04-06T22:13:49.423Z,65.10
2023-04-06T22:16:19.241Z,64.90
2023-04-06T22:18:47.458Z,65.25
2023-04-06T22:21:15.438Z,64.94
2023-04-06T22:23:43.181Z,65.38
2023-04-06T22:26:12.173Z,65.21
2023-04-06T22:28:39.876Z,65.40
2023-04-06T22:31:07.554Z,65.31
2023-04-06T22:33:37.047Z,65.30
2023-04-06T22:36:05.155Z,65.25
2023-04-06T22:38:32.869Z,65.05
2023-04-06T22:41:01.045Z,64.96
2023-04-06T22:43:28.705Z,64.85
2023-04-06T22:45:56.477Z,65.25
2023-04-06T22:48:24.812Z,64.94
2023-04-06T22:50:54.184Z,64.88
2023-04-06T22:53:21.895Z,65.16
2023-04-06T22:55:50.153Z,64.97
2023-04-06T22:58:17.929Z,65.21
2023-04-06T23:00:45.911Z,65.27
2023-04-06T23:03:14.182Z,65.42
2023-04-06T23:05:41.958Z,64.97
2023-04-06T23:08:11.019Z,65.25
2023-04-06T23:13:28.150Z,65.29
2023-04-06T23:15:56.333Z,65.43
2023-04-06T23:18:24.042Z,65.58
2023-04-06T23:20:51.697Z,65.74
2023-04-06T23:23:21.047Z,65.62
2023-04-06T23:25:48.706Z,65.73
2023-04-06T23:28:16.405Z,65.70
2023-04-06T23:30:44.587Z,65.61
2023-04-06T23:33:12.299Z,65.75
2023-04-06T23:35:40.113Z,65.46
2023-04-06T23:38:08.201Z,65.74
2023-04-06T23:40:39.813Z,65.47
2023-04-06T23:43:07.508Z,65.49
2023-04-06T23:45:35.525Z,65.66
2023-04-06T23:48:03.268Z,65.23
2023-04-06T23:50:30.949Z,65.40
2023-04-06T23:52:59.256Z,65.15
2023-04-06T23:55:26.921Z,64.96
2023-04-06T23:57:56.550Z,65.54
